createdAt,value
2019-06-10T00:00:57.290Z,17.95
2019-06-10T00:03:27.889Z,18.12
2019-06-10T00:06:00.862Z,19.95
2019-06-10T00:08:30.842Z,20.32
2019-06-10T00:11:04.426Z,25.77
2019-06-10T00:13:33.781Z,25.62
2019-06-10T00:16:05.087Z,23.52
2019-06-10T00:18:42.289Z,24.85
2019-06-10T00:21:08.486Z,24.72
2019-06-10T00:23:41.071Z,24.70
2019-06-10T00:26:12.785Z,24.90
2019-06-10T00:28:43.289Z,24.87
2019-06-10T00:31:13.685Z,24.95
2019-06-10T00:33:44.206Z,24.80
2019-06-10T00:36:14.591Z,24.77
2019-06-10T00:38:45.105Z,24.30
2019-06-10T00:41:15.594Z,23.87
2019-06-10T00:43:46.177Z,23.38
2019-06-10T00:46:18.034Z,23.05
2019-06-10T00:48:50.751Z,23.30
2019-06-10T00:51:20.957Z,23.07
2019-06-10T00:53:51.675Z,23.02
2019-06-10T00:56:22.258Z,22.20
2019-06-10T00:58:52.970Z,21.48
2019-06-10T01:01:25.112Z,20.15
2019-06-10T01:03:55.539Z,19.95
2019-06-10T01:06:25.974Z,20.25
2019-06-10T01:08:56.711Z,20.35
2019-06-10T01:11:27.955Z,20.90
2019-06-10T01:14:01.429Z,19.62
2019-06-10T01:16:32.377Z,18.37
2019-06-10T01:19:03.797Z,18.02
2019-06-10T01:21:34.415Z,18.20
2019-06-10T01:24:05.092Z,18.37
2019-06-10T01:26:35.582Z,18.92
2019-06-10T01:29:06.100Z,18.62
2019-06-10T01:31:38.182Z,18.32
2019-06-10T01:34:10.024Z,19.15
2019-06-10T01:36:40.847Z,18.87
2019-06-10T01:39:12.063Z,19.10
2019-06-10T01:41:43.398Z,22.17
2019-06-10T01:44:14.687Z,20.65
2019-06-10T01:46:45.986Z,21.07
2019-06-10T01:49:18.054Z,22.58
2019-06-10T01:51:51.309Z,21.05
2019-06-10T01:54:21.289Z,21.70
2019-06-10T01:56:52.099Z,21.45
2019-06-10T01:59:22.479Z,22.30
2019-06-10T02:01:57.578Z,20.00
2019-06-10T02:04:27.944Z,20.77
2019-06-10T02:06:58.383Z,20.92
2019-06-10T02:09:30.998Z,22.95
2019-06-10T02:12:02.191Z,23.32
2019-06-10T02:14:32.883Z,25.02
2019-06-10T02:17:04.817Z,25.52
2019-06-10T02:19:35.216Z,24.12
2019-06-10T02:22:05.622Z,23.95
2019-06-10T02:24:37.609Z,23.35
2019-06-10T02:27:08.005Z,25.35
2019-06-10T02:29:38.433Z,27.20
2019-06-10T02:32:12.373Z,25.82
2019-06-10T02:34:53.594Z,26.42
2019-06-10T02:37:17.783Z,27.30
2019-06-10T02:39:46.546Z,27.05
2019-06-10T02:42:22.273Z,27.85
2019-06-10T02:44:54.073Z,26.52
2019-06-10T02:47:31.806Z,26.42
2019-06-10T02:50:01.935Z,25.48
2019-06-10T02:52:33.044Z,24.67
2019-06-10T02:55:03.750Z,23.70
2019-06-10T02:57:39.766Z,24.25
2019-06-10T03:00:19.820Z,20.82
2019-06-10T03:02:44.998Z,23.42
2019-06-10T03:05:18.809Z,21.60
2019-06-10T03:07:47.775Z,21.85
2019-06-10T03:10:19.529Z,21.77
2019-06-10T03:12:50.027Z,21.70
2019-06-10T03:15:20.461Z,21.42
2019-06-10T03:17:52.143Z,20.65
2019-06-10T03:20:24.724Z,22.85
2019-06-10T03:22:55.014Z,23.67
2019-06-10T03:25:27.750Z,23.10
2019-06-10T03:27:58.368Z,23.55
2019-06-10T03:30:41.107Z,23.40
2019-06-10T03:33:04.934Z,24.80
2019-06-10T03:35:34.915Z,27.75
2019-06-10T03:38:05.300Z,30.10
2019-06-10T03:40:36.547Z,31.68
2019-06-10T03:43:06.940Z,32.28
2019-06-10T03:45:37.425Z,32.03
2019-06-10T03:48:07.811Z,29.90
2019-06-10T03:50:43.115Z,28.27
2019-06-10T03:53:13.605Z,28.40
2019-06-10T03:55:44.070Z,29.05
2019-06-10T03:58:14.539Z,27.20
2019-06-10T04:00:44.971Z,26.40
2019-06-10T04:03:15.345Z,27.77
2019-06-10T04:05:45.774Z,26.25
2019-06-10T04:08:17.447Z,25.88
2019-06-10T04:10:47.969Z,28.05
2019-06-10T04:13:19.313Z,27.73
2019-06-10T04:15:50.047Z,27.37
2019-06-10T04:18:21.889Z,27.00
2019-06-10T04:20:52.981Z,29.45
2019-06-10T04:23:25.403Z,28.10
2019-06-10T04:25:55.683Z,27.27
2019-06-10T04:28:27.609Z,28.05
2019-06-10T04:31:02.602Z,26.97
2019-06-10T04:33:33.088Z,25.05
2019-06-10T04:36:03.729Z,24.52
2019-06-10T04:38:34.217Z,25.02
2019-06-10T04:41:04.910Z,24.92
2019-06-10T04:43:35.430Z,22.93
2019-06-10T04:46:05.820Z,20.02
2019-06-10T04:48:36.218Z,19.85
2019-06-10T04:51:06.719Z,18.42
2019-06-10T04:53:40.230Z,18.10
2019-06-10T04:56:12.261Z,18.45
2019-06-10T04:58:43.469Z,17.85
2019-06-10T05:01:15.407Z,18.77
2019-06-10T05:03:45.887Z,17.95
2019-06-10T05:06:16.379Z,17.70
2019-06-10T05:08:46.797Z,18.25
2019-06-10T05:11:19.092Z,18.10
2019-06-10T05:13:49.641Z,17.77
2019-06-10T05:16:23.414Z,18.00
2019-06-10T05:18:54.720Z,16.35
2019-06-10T05:21:26.709Z,18.57
2019-06-10T05:23:56.359Z,18.23
2019-06-10T05:26:27.653Z,17.48
2019-06-10T05:28:58.891Z,17.82
2019-06-10T05:31:31.020Z,18.35
2019-06-10T05:34:02.343Z,18.90
2019-06-10T05:36:34.651Z,18.82
2019-06-10T05:39:07.108Z,17.37
2019-06-10T05:41:39.251Z,16.80
2019-06-10T05:44:13.470Z,17.60
2019-06-10T05:46:43.755Z,16.75
2019-06-10T05:49:14.289Z,16.40
2019-06-10T05:51:44.825Z,16.60
2019-06-10T05:54:16.961Z,18.05
2019-06-10T05:56:48.287Z,17.42
2019-06-10T05:59:18.706Z,15.25
2019-06-10T06:01:49.151Z,15.93
2019-06-10T06:04:19.590Z,16.27
2019-06-10T06:06:53.022Z,16.93
2019-06-10T06:09:23.048Z,16.40
2019-06-10T06:11:53.533Z,15.45
2019-06-10T06:14:23.968Z,15.28
2019-06-10T06:16:54.372Z,15.15
2019-06-10T06:19:26.047Z,15.43
2019-06-10T06:21:56.557Z,15.10
2019-06-10T06:24:27.510Z,17.12
2019-06-10T06:26:58.029Z,14.87
2019-06-10T06:29:28.858Z,14.73
2019-06-10T06:31:59.701Z,15.13
2019-06-10T06:34:33.679Z,12.60
2019-06-10T06:37:03.321Z,13.45
2019-06-10T06:39:37.069Z,13.32
2019-06-10T06:42:08.172Z,14.10
2019-06-10T06:44:40.094Z,14.73
2019-06-10T06:47:13.058Z,14.83
2019-06-10T06:49:43.377Z,15.13
2019-06-10T06:52:14.835Z,14.68
2019-06-10T06:54:45.412Z,14.10
2019-06-10T06:57:19.618Z,14.28
2019-06-10T06:59:52.471Z,15.32
2019-06-10T07:02:22.816Z,15.00
2019-06-10T07:04:53.331Z,14.85
2019-06-10T07:07:24.103Z,14.68
2019-06-10T07:09:55.381Z,14.85
2019-06-10T07:12:25.889Z,15.93
2019-06-10T07:14:56.599Z,13.18
2019-06-10T07:17:27.037Z,12.88
2019-06-10T07:19:57.723Z,13.28
2019-06-10T07:22:29.710Z,12.93
2019-06-10T07:25:04.111Z,12.68
2019-06-10T07:27:34.414Z,13.95
2019-06-10T07:30:12.573Z,12.07
2019-06-10T07:32:45.377Z,14.43
2019-06-10T07:35:13.496Z,14.10
2019-06-10T07:37:45.556Z,13.30
2019-06-10T07:40:16.062Z,15.25
2019-06-10T07:42:46.530Z,14.47
2019-06-10T07:45:18.078Z,15.65
2019-06-10T07:47:48.480Z,14.00
2019-06-10T07:50:22.579Z,14.83
2019-06-10T07:52:53.277Z,13.45
2019-06-10T07:55:23.726Z,14.73
2019-06-10T07:57:54.148Z,13.15
2019-06-10T08:00:25.728Z,14.30
2019-06-10T08:02:56.224Z,13.95
2019-06-10T08:05:26.633Z,15.05
2019-06-10T08:07:58.549Z,15.05
2019-06-10T08:10:28.970Z,15.53
2019-06-10T08:13:02.857Z,14.33
2019-06-10T08:15:33.205Z,15.90
2019-06-10T08:18:04.342Z,14.47
2019-06-10T08:20:45.083Z,13.35
2019-06-10T08:23:20.156Z,15.25
2019-06-10T08:25:56.566Z,15.55
2019-06-10T08:28:24.303Z,15.15
2019-06-10T08:30:54.882Z,16.20
2019-06-10T08:33:26.974Z,14.15
2019-06-10T08:36:00.560Z,14.58
2019-06-10T08:38:32.903Z,12.47
2019-06-10T08:41:03.375Z,14.90
2019-06-10T08:43:33.943Z,14.03
2019-06-10T08:46:04.467Z,12.98
2019-06-10T08:48:35.077Z,14.43
2019-06-10T08:51:08.244Z,15.55
2019-06-10T08:53:39.465Z,14.43
2019-06-10T08:56:10.021Z,14.95
2019-06-10T08:58:42.022Z,14.68
2019-06-10T09:01:13.419Z,12.60
2019-06-10T09:03:48.607Z,13.65
2019-06-10T09:06:16.345Z,16.67
2019-06-10T09:08:49.909Z,14.98
2019-06-10T09:11:23.562Z,16.40
2019-06-10T09:13:53.169Z,13.18
2019-06-10T09:16:23.988Z,13.90
2019-06-10T09:18:55.456Z,13.10
2019-06-10T09:21:26.082Z,14.03
2019-06-10T09:23:59.983Z,13.00
2019-06-10T09:26:29.897Z,16.35
2019-06-10T09:29:02.932Z,11.97
2019-06-10T09:31:33.275Z,11.80
2019-06-10T09:34:04.113Z,12.68
2019-06-10T09:36:34.735Z,10.00
2019-06-10T09:39:07.215Z,9.53
2019-06-10T09:41:43.214Z,9.43
2019-06-10T09:44:12.687Z,9.48
2019-06-10T09:46:47.020Z,10.68
2019-06-10T09:49:15.312Z,9.90
2019-06-10T09:51:48.892Z,11.08
2019-06-10T09:54:17.809Z,9.50
2019-06-10T09:56:50.013Z,8.83
2019-06-10T09:59:20.381Z,9.98
2019-06-10T10:01:57.458Z,9.73
2019-06-10T10:04:23.672Z,11.18
2019-06-10T10:06:57.215Z,7.70
2019-06-10T10:09:29.633Z,7.75
2019-06-10T10:12:00.060Z,8.80
2019-06-10T10:14:30.440Z,8.08
2019-06-10T10:17:04.471Z,8.58
2019-06-10T10:19:34.650Z,8.90
2019-06-10T10:22:05.250Z,9.50
2019-06-10T10:24:35.654Z,7.95
2019-06-10T10:27:09.365Z,7.50
2019-06-10T10:29:38.294Z,7.85
2019-06-10T10:32:08.774Z,8.55
2019-06-10T10:34:43.214Z,9.68
2019-06-10T10:37:12.859Z,7.92
2019-06-10T10:39:44.568Z,8.33
2019-06-10T10:42:16.895Z,8.08
2019-06-10T10:44:49.983Z,10.18
2019-06-10T10:47:19.478Z,9.33
2019-06-10T10:49:52.942Z,6.85
2019-06-10T10:52:22.417Z,7.42
2019-06-10T10:54:54.310Z,6.22
2019-06-10T10:57:25.250Z,6.40
2019-06-10T10:59:56.217Z,15.23
2019-06-10T11:02:26.914Z,7.65
2019-06-10T11:04:57.398Z,7.67
2019-06-10T11:07:27.851Z,8.20
2019-06-10T11:09:58.248Z,8.33
2019-06-10T11:12:33.088Z,9.23
2019-06-10T11:15:05.348Z,6.50
2019-06-10T11:17:35.845Z,9.73
2019-06-10T11:20:07.228Z,7.33
2019-06-10T11:22:37.662Z,6.17
2019-06-10T11:25:08.088Z,9.85
2019-06-10T11:27:38.525Z,7.47
2019-06-10T11:30:09.389Z,6.30
2019-06-10T11:32:39.883Z,7.42
2019-06-10T11:35:12.142Z,9.60
2019-06-10T11:37:42.912Z,7.62
2019-06-10T11:40:15.301Z,8.73
2019-06-10T11:42:46.299Z,7.00
2019-06-10T11:45:17.845Z,6.20
2019-06-10T11:47:49.351Z,6.35
2019-06-10T11:50:23.216Z,6.87
2019-06-10T11:52:56.942Z,7.10
2019-06-10T11:55:25.054Z,9.95
2019-06-10T11:57:57.581Z,6.33
2019-06-10T12:00:27.985Z,6.80
2019-06-10T12:02:59.027Z,7.75
2019-06-10T12:05:32.645Z,6.62
2019-06-10T12:08:02.974Z,6.80
2019-06-10T12:10:34.979Z,7.92
2019-06-10T12:13:07.252Z,8.18
2019-06-10T12:16:13.855Z,7.17
2019-06-10T12:18:13.192Z,6.90
2019-06-10T12:20:43.919Z,7.03
2019-06-10T12:23:14.438Z,7.08
2019-06-10T12:25:47.823Z,7.40
2019-06-10T12:28:17.015Z,6.03
2019-06-10T12:30:47.392Z,7.85
2019-06-10T12:33:21.408Z,7.55
2019-06-10T12:35:51.766Z,6.15
2019-06-10T12:38:23.578Z,6.17
2019-06-10T12:40:56.795Z,8.80
2019-06-10T12:43:26.170Z,6.97
2019-06-10T12:45:59.128Z,6.90
2019-06-10T12:48:29.873Z,8.78
2019-06-10T12:51:03.513Z,8.68
2019-06-10T12:53:32.784Z,8.25
2019-06-10T12:56:10.153Z,7.25
2019-06-10T12:58:37.517Z,7.25
2019-06-10T13:01:08.145Z,5.87
2019-06-10T13:03:38.633Z,7.08
2019-06-10T13:06:09.928Z,7.15
2019-06-10T13:08:42.798Z,7.47
2019-06-10T13:11:14.967Z,7.30
2019-06-10T13:13:45.865Z,7.92
2019-06-10T13:16:16.297Z,9.40
2019-06-10T13:18:46.870Z,10.65
2019-06-10T13:21:17.875Z,8.18
2019-06-10T13:23:48.590Z,8.53
2019-06-10T13:26:19.007Z,8.80
2019-06-10T13:28:49.391Z,7.92
2019-06-10T13:31:23.312Z,8.23
2019-06-10T13:33:54.234Z,6.97
2019-06-10T13:36:26.152Z,7.05
2019-06-10T13:38:57.632Z,8.93
2019-06-10T13:41:28.250Z,8.48
2019-06-10T13:43:59.968Z,7.97
2019-06-10T13:46:33.035Z,7.20
2019-06-10T13:49:08.616Z,7.67
2019-06-10T13:51:37.688Z,6.90
2019-06-10T13:54:10.564Z,6.85
2019-06-10T13:56:47.059Z,6.58
2019-06-10T13:59:14.485Z,5.70
2019-06-10T14:01:45.159Z,7.80
2019-06-10T14:04:22.076Z,7.60
2019-06-10T14:06:50.693Z,8.38
2019-06-10T14:09:22.742Z,8.08
2019-06-10T14:11:53.558Z,8.33
2019-06-10T14:14:23.943Z,7.80
2019-06-10T14:16:55.825Z,7.58
2019-06-10T14:19:26.448Z,7.97
2019-06-10T14:21:56.972Z,7.80
2019-06-10T14:24:27.361Z,6.83
2019-06-10T14:26:57.843Z,5.58
2019-06-10T14:29:28.305Z,7.53
2019-06-10T14:31:58.810Z,7.92
2019-06-10T14:34:29.198Z,7.47
2019-06-10T14:36:59.601Z,8.55
2019-06-10T14:39:32.901Z,8.38
2019-06-10T14:42:06.955Z,10.88
2019-06-10T14:44:37.780Z,7.70
2019-06-10T14:47:08.847Z,8.48
2019-06-10T14:49:39.456Z,9.63
2019-06-10T14:52:12.269Z,9.13
2019-06-10T14:54:42.860Z,9.03
2019-06-10T14:57:15.075Z,8.75
2019-06-10T14:59:46.408Z,8.48
2019-06-10T15:02:17.488Z,8.70
2019-06-10T15:04:48.068Z,9.20
2019-06-10T15:07:20.160Z,8.50
2019-06-10T15:09:52.585Z,8.95
2019-06-10T15:12:22.954Z,8.28
2019-06-10T15:14:53.583Z,7.87
2019-06-10T15:17:24.116Z,7.90
2019-06-10T15:19:54.804Z,8.50
2019-06-10T15:22:25.334Z,7.85
2019-06-10T15:24:55.871Z,8.10
2019-06-10T15:27:30.822Z,8.10
2019-06-10T15:29:58.623Z,8.45
2019-06-10T15:32:34.885Z,8.98
2019-06-10T15:35:04.630Z,10.03
2019-06-10T15:37:35.021Z,8.10
2019-06-10T15:40:06.750Z,16.20
2019-06-10T15:42:37.130Z,10.65
2019-06-10T15:45:07.942Z,10.65
2019-06-10T15:47:38.334Z,9.20
2019-06-10T15:50:13.173Z,8.50
2019-06-10T15:52:44.210Z,7.95
2019-06-10T15:55:47.698Z,7.85
2019-06-10T15:57:48.029Z,8.50
2019-06-10T16:00:22.267Z,9.33
2019-06-10T16:02:51.084Z,7.37
2019-06-10T16:05:25.159Z,11.97
2019-06-10T16:07:53.597Z,8.88
2019-06-10T16:10:27.752Z,8.75
2019-06-10T16:12:56.538Z,16.10
2019-06-10T16:15:28.417Z,9.23
2019-06-10T16:17:58.907Z,9.48
2019-06-10T16:20:32.382Z,8.83
2019-06-10T16:23:03.095Z,10.08
2019-06-10T16:25:33.569Z,9.55
2019-06-10T16:28:03.951Z,10.03
2019-06-10T16:30:34.361Z,9.50
2019-06-10T16:33:05.066Z,10.03
2019-06-10T16:35:35.554Z,9.40
2019-06-10T16:38:07.347Z,9.50
2019-06-10T16:40:37.774Z,8.50
2019-06-10T16:43:08.196Z,7.67
2019-06-10T16:45:38.615Z,8.28
2019-06-10T16:48:12.850Z,9.18
2019-06-10T16:50:42.821Z,10.05
2019-06-10T16:53:13.797Z,9.25
2019-06-10T16:55:44.273Z,9.55
2019-06-10T16:58:14.692Z,9.48
2019-06-10T17:00:46.952Z,10.23
2019-06-10T17:03:18.375Z,10.28
2019-06-10T17:05:48.909Z,11.53
2019-06-10T17:08:20.031Z,10.43
2019-06-10T17:10:53.445Z,10.08
2019-06-10T17:13:27.189Z,9.13
2019-06-10T17:15:57.841Z,13.68
2019-06-10T17:18:29.898Z,9.53
2019-06-10T17:21:03.577Z,9.93
2019-06-10T17:23:36.271Z,10.23
2019-06-10T17:26:04.540Z,9.53
2019-06-10T17:28:36.767Z,9.88
2019-06-10T17:31:07.423Z,9.05
2019-06-10T17:33:37.821Z,12.00
2019-06-10T17:36:08.692Z,9.15
2019-06-10T17:38:39.078Z,10.15
2019-06-10T17:41:09.480Z,9.65
2019-06-10T17:43:39.955Z,9.48
2019-06-10T17:46:12.394Z,9.73
2019-06-10T17:48:43.186Z,9.18
2019-06-10T17:51:13.787Z,10.38
2019-06-10T17:53:44.191Z,10.10
2019-06-10T17:56:14.576Z,10.18
2019-06-10T17:58:54.337Z,9.30
2019-06-10T18:01:18.912Z,9.25
2019-06-10T18:03:49.430Z,9.08
2019-06-10T18:06:23.838Z,9.45
2019-06-10T18:08:52.794Z,9.03
2019-06-10T18:11:25.122Z,9.45
2019-06-10T18:13:55.375Z,9.45
2019-06-10T18:16:26.637Z,10.00
2019-06-10T18:18:57.148Z,9.33
2019-06-10T18:21:28.737Z,10.03
2019-06-10T18:24:06.844Z,9.30
2019-06-10T18:26:34.198Z,9.93
2019-06-10T18:29:08.168Z,10.68
2019-06-10T18:31:37.123Z,9.63
2019-06-10T18:34:07.675Z,11.33
2019-06-10T18:36:38.208Z,8.83
2019-06-10T18:39:09.071Z,11.05
2019-06-10T18:41:40.213Z,9.80
2019-06-10T18:44:22.451Z,10.23
2019-06-10T18:46:43.574Z,9.95
2019-06-10T18:49:14.157Z,9.90
2019-06-10T18:51:46.080Z,10.18
2019-06-10T18:54:16.469Z,9.30
2019-06-10T18:56:48.436Z,9.98
2019-06-10T18:59:21.174Z,10.05
2019-06-10T19:01:52.770Z,9.70
2019-06-10T19:04:23.790Z,11.03
2019-06-10T19:06:54.218Z,10.35
2019-06-10T19:09:24.627Z,10.28
2019-06-10T19:11:57.911Z,10.75
2019-06-10T19:14:29.324Z,9.23
2019-06-10T19:16:59.863Z,10.40
2019-06-10T19:19:30.261Z,10.48
2019-06-10T19:22:08.240Z,10.88
2019-06-10T19:24:34.911Z,9.93
2019-06-10T19:27:05.582Z,10.00
2019-06-10T19:29:43.952Z,9.75
2019-06-10T19:32:08.981Z,10.68
2019-06-10T19:34:39.483Z,11.10
2019-06-10T19:37:10.098Z,10.70
2019-06-10T19:39:49.292Z,10.85
2019-06-10T19:42:13.077Z,11.33
2019-06-10T19:44:45.954Z,10.88
2019-06-10T19:47:16.032Z,11.33
2019-06-10T19:49:47.241Z,11.00
2019-06-10T19:52:18.024Z,11.50
2019-06-10T19:54:48.628Z,11.43
2019-06-10T19:57:19.103Z,11.65
2019-06-10T20:00:06.715Z,11.57
2019-06-10T20:02:22.558Z,11.45
2019-06-10T20:04:53.105Z,12.60
2019-06-10T20:07:25.217Z,12.05
2019-06-10T20:09:55.655Z,11.63
2019-06-10T20:12:26.477Z,11.70
2019-06-10T20:14:57.344Z,12.05
2019-06-10T20:17:27.778Z,11.60
2019-06-10T20:19:58.235Z,12.47
2019-06-10T20:22:28.825Z,13.48
2019-06-10T20:24:59.275Z,12.75
2019-06-10T20:27:30.113Z,13.40
2019-06-10T20:30:10.125Z,13.00
2019-06-10T20:32:33.676Z,13.58
2019-06-10T20:35:05.776Z,12.98
2019-06-10T20:37:37.557Z,13.35
2019-06-10T20:40:08.395Z,14.25
2019-06-10T20:42:40.153Z,14.13
2019-06-10T20:45:13.160Z,13.30
2019-06-10T20:47:46.537Z,14.40
2019-06-10T20:50:18.223Z,14.98
2019-06-10T20:52:49.077Z,15.40
2019-06-10T20:55:19.826Z,14.40
2019-06-10T20:58:02.339Z,15.55
2019-06-10T21:00:33.851Z,15.93
2019-06-10T21:03:04.682Z,15.35
2019-06-10T21:05:35.903Z,15.68
2019-06-10T21:08:06.498Z,15.13
2019-06-10T21:10:37.946Z,17.40
2019-06-10T21:13:08.505Z,15.88
2019-06-10T21:15:40.531Z,16.73
2019-06-10T21:18:13.187Z,16.25
2019-06-10T21:20:46.638Z,15.03
2019-06-10T21:23:16.993Z,16.20
2019-06-10T21:25:52.952Z,15.55
2019-06-10T21:28:23.377Z,16.70
2019-06-10T21:30:58.619Z,16.97
2019-06-10T21:33:28.291Z,15.98
2019-06-10T21:35:58.674Z,17.05
2019-06-10T21:38:32.279Z,16.65
2019-06-10T21:41:03.412Z,16.55
2019-06-10T21:43:33.978Z,16.30
2019-06-10T21:46:04.412Z,17.35
2019-06-10T21:48:36.281Z,17.20
2019-06-10T21:51:06.745Z,17.27
2019-06-10T21:53:38.761Z,16.62
2019-06-10T21:56:12.805Z,17.40
2019-06-10T21:58:43.923Z,18.02
2019-06-10T22:01:17.085Z,17.62
2019-06-10T22:03:51.983Z,18.20
2019-06-10T22:06:19.914Z,18.07
2019-06-10T22:08:53.065Z,17.35
2019-06-10T22:11:23.298Z,17.98
2019-06-10T22:13:56.118Z,17.32
2019-06-10T22:16:26.178Z,18.87
2019-06-10T22:18:56.652Z,17.48
2019-06-10T22:21:27.066Z,18.52
2019-06-10T22:23:57.502Z,17.40
2019-06-10T22:26:28.024Z,17.05
2019-06-10T22:28:59.898Z,17.15
2019-06-10T22:31:32.480Z,17.42
2019-06-10T22:34:03.335Z,18.82
2019-06-10T22:36:33.968Z,18.85
2019-06-10T22:39:05.511Z,18.75
2019-06-10T22:41:35.872Z,17.50
2019-06-10T22:44:07.899Z,18.45
2019-06-10T22:46:38.355Z,18.40
2019-06-10T22:49:08.827Z,18.02
2019-06-10T22:51:39.227Z,18.05
2019-06-10T22:54:09.759Z,17.85
2019-06-10T22:56:42.297Z,18.40
2019-06-10T22:59:13.169Z,18.30
2019-06-10T23:01:46.155Z,18.20
2019-06-10T23:04:16.555Z,18.20
2019-06-10T23:06:48.031Z,17.62
2019-06-10T23:09:18.650Z,19.12
2019-06-10T23:11:52.836Z,19.23
2019-06-10T23:14:22.819Z,19.85
2019-06-10T23:16:55.274Z,19.25
2019-06-10T23:19:27.252Z,18.85
2019-06-10T23:22:00.102Z,18.27
2019-06-10T23:24:32.215Z,18.95
2019-06-10T23:27:03.466Z,18.27
2019-06-10T23:29:34.033Z,18.48
2019-06-10T23:32:07.182Z,18.90
2019-06-10T23:34:36.514Z,19.10
2019-06-10T23:37:06.941Z,18.57
2019-06-10T23:39:37.349Z,18.82
2019-06-10T23:42:07.792Z,19.25
2019-06-10T23:44:38.245Z,19.52
2019-06-10T23:47:12.594Z,18.48
2019-06-10T23:49:42.190Z,17.92
2019-06-10T23:52:14.133Z,18.95
2019-06-10T23:54:44.559Z,18.80
2019-06-10T23:57:15.030Z,18.82
2019-06-10T23:59:45.521Z,20.20
